sensor_id;sensor_type;location;lat;lon;timestamp;P1;durP1;ratioP1;P2;durP2;ratioP2
23046;SDS011;11691;51.462;6.902;2022-12-07T00:01:05;21.17;;;13.43;;
23046;SDS011;11691;51.462;6.902;2022-12-07T00:03:33;20.33;;;13.07;;
23046;SDS011;11691;51.462;6.902;2022-12-07T00:05:59;19.87;;;13.63;;
23046;SDS011;11691;51.462;6.902;2022-12-07T00:08:26;21.63;;;14.17;;
23046;SDS011;11691;51.462;6.902;2022-12-07T00:10:52;23.43;;;14.93;;
23046;SDS011;11691;51.462;6.902;2022-12-07T00:13:18;22.57;;;14.10;;
23046;SDS011;11691;51.462;6.902;2022-12-07T00:15:44;23.67;;;14.73;;
23046;SDS011;11691;51.462;6.902;2022-12-07T00:18:10;22.13;;;14.47;;
23046;SDS011;11691;51.462;6.902;2022-12-07T00:20:36;21.70;;;14.70;;
23046;SDS011;11691;51.462;6.902;2022-12-07T00:23:02;21.47;;;14.83;;
23046;SDS011;11691;51.462;6.902;2022-12-07T00:25:29;22.37;;;15.00;;
23046;SDS011;11691;51.462;6.902;2022-12-07T00:27:55;25.73;;;14.67;;
23046;SDS011;11691;51.462;6.902;2022-12-07T00:30:22;20.43;;;15.17;;
23046;SDS011;11691;51.462;6.902;2022-12-07T00:32:48;24.70;;;16.83;;
23046;SDS011;11691;51.462;6.902;2022-12-07T00:35:14;24.30;;;15.73;;
23046;SDS011;11691;51.462;6.902;2022-12-07T00:37:40;28.73;;;16.07;;
23046;SDS011;11691;51.462;6.902;2022-12-07T00:40:06;21.40;;;14.07;;
23046;SDS011;11691;51.462;6.902;2022-12-07T00:42:32;24.13;;;16.60;;
23046;SDS011;11691;51.462;6.902;2022-12-07T00:44:58;26.03;;;16.37;;
23046;SDS011;11691;51.462;6.902;2022-12-07T00:47:24;25.40;;;16.10;;
23046;SDS011;11691;51.462;6.902;2022-12-07T00:49:51;25.50;;;15.80;;
23046;SDS011;11691;51.462;6.902;2022-12-07T00:52:17;24.93;;;15.90;;
23046;SDS011;11691;51.462;6.902;2022-12-07T00:54:43;25.87;;;17.07;;
23046;SDS011;11691;51.462;6.902;2022-12-07T00:57:09;26.87;;;16.90;;
23046;SDS011;11691;51.462;6.902;2022-12-07T00:59:35;25.60;;;18.03;;
23046;SDS011;11691;51.462;6.902;2022-12-07T01:02:01;26.17;;;16.80;;
23046;SDS011;11691;51.462;6.902;2022-12-07T01:04:27;27.33;;;17.70;;
23046;SDS011;11691;51.462;6.902;2022-12-07T01:06:54;27.07;;;17.77;;
23046;SDS011;11691;51.462;6.902;2022-12-07T01:09:20;29.13;;;18.17;;
23046;SDS011;11691;51.462;6.902;2022-12-07T01:11:46;29.50;;;18.13;;
23046;SDS011;11691;51.462;6.902;2022-12-07T01:14:12;28.47;;;18.73;;
23046;SDS011;11691;51.462;6.902;2022-12-07T01:16:38;35.07;;;19.77;;
23046;SDS011;11691;51.462;6.902;2022-12-07T01:19:03;33.97;;;20.03;;
23046;SDS011;11691;51.462;6.902;2022-12-07T01:21:31;28.53;;;18.60;;
23046;SDS011;11691;51.462;6.902;2022-12-07T01:24:02;31.20;;;19.70;;
23046;SDS011;11691;51.462;6.902;2022-12-07T01:26:29;27.20;;;18.07;;
23046;SDS011;11691;51.462;6.902;2022-12-07T01:28:55;29.87;;;19.37;;
23046;SDS011;11691;51.462;6.902;2022-12-07T01:31:24;29.50;;;18.80;;
23046;SDS011;11691;51.462;6.902;2022-12-07T01:33:56;28.80;;;18.83;;
23046;SDS011;11691;51.462;6.902;2022-12-07T01:36:23;30.63;;;18.63;;
23046;SDS011;11691;51.462;6.902;2022-12-07T01:38:51;34.67;;;19.27;;
23046;SDS011;11691;51.462;6.902;2022-12-07T01:41:21;32.27;;;18.53;;
23046;SDS011;11691;51.462;6.902;2022-12-07T01:46:32;31.90;;;19.13;;
23046;SDS011;11691;51.462;6.902;2022-12-07T01:48:58;29.37;;;19.33;;
23046;SDS011;11691;51.462;6.902;2022-12-07T01:51:24;29.20;;;18.80;;
23046;SDS011;11691;51.462;6.902;2022-12-07T01:53:51;28.60;;;18.57;;
23046;SDS011;11691;51.462;6.902;2022-12-07T01:56:18;26.70;;;17.57;;
23046;SDS011;11691;51.462;6.902;2022-12-07T01:58:47;27.07;;;17.70;;
23046;SDS011;11691;51.462;6.902;2022-12-07T02:01:13;25.40;;;16.97;;
23046;SDS011;11691;51.462;6.902;2022-12-07T02:03:40;32.57;;;19.00;;
23046;SDS011;11691;51.462;6.902;2022-12-07T02:06:08;28.13;;;18.63;;
23046;SDS011;11691;51.462;6.902;2022-12-07T02:08:37;31.23;;;18.43;;
23046;SDS011;11691;51.462;6.902;2022-12-07T02:11:03;29.33;;;18.10;;
23046;SDS011;11691;51.462;6.902;2022-12-07T02:13:32;30.13;;;18.00;;
23046;SDS011;11691;51.462;6.902;2022-12-07T02:29:27;26.80;;;17.37;;
23046;SDS011;11691;51.462;6.902;2022-12-07T02:34:42;28.40;;;17.10;;
23046;SDS011;11691;51.462;6.902;2022-12-07T02:39:48;29.57;;;16.90;;
23046;SDS011;11691;51.462;6.902;2022-12-07T02:42:38;27.90;;;17.50;;
23046;SDS011;11691;51.462;6.902;2022-12-07T02:45:07;26.93;;;15.77;;
23046;SDS011;11691;51.462;6.902;2022-12-07T02:47:35;28.27;;;17.37;;
23046;SDS011;11691;51.462;6.902;2022-12-07T02:50:03;26.80;;;16.70;;
23046;SDS011;11691;51.462;6.902;2022-12-07T02:52:29;29.27;;;16.87;;
23046;SDS011;11691;51.462;6.902;2022-12-07T02:54:55;33.67;;;17.70;;
23046;SDS011;11691;51.462;6.902;2022-12-07T02:57:33;26.37;;;16.83;;
23046;SDS011;11691;51.462;6.902;2022-12-07T03:00:19;27.67;;;15.53;;
23046;SDS011;11691;51.462;6.902;2022-12-07T03:03:08;25.07;;;16.77;;
23046;SDS011;11691;51.462;6.902;2022-12-07T03:05:58;25.00;;;16.33;;
23046;SDS011;11691;51.462;6.902;2022-12-07T03:13:45;29.57;;;15.93;;
23046;SDS011;11691;51.462;6.902;2022-12-07T03:18:49;28.30;;;17.43;;
23046;SDS011;11691;51.462;6.902;2022-12-07T03:21:23;29.10;;;17.43;;
23046;SDS011;11691;51.462;6.902;2022-12-07T03:23:54;31.00;;;17.47;;
23046;SDS011;11691;51.462;6.902;2022-12-07T03:26:24;28.37;;;16.70;;
23046;SDS011;11691;51.462;6.902;2022-12-07T03:28:53;27.83;;;17.00;;
23046;SDS011;11691;51.462;6.902;2022-12-07T03:31:24;26.37;;;16.43;;
23046;SDS011;11691;51.462;6.902;2022-12-07T03:34:09;29.90;;;18.07;;
23046;SDS011;11691;51.462;6.902;2022-12-07T03:39:34;25.83;;;16.70;;
23046;SDS011;11691;51.462;6.902;2022-12-07T03:42:03;27.37;;;16.97;;
23046;SDS011;11691;51.462;6.902;2022-12-07T03:44:31;30.47;;;17.13;;
23046;SDS011;11691;51.462;6.902;2022-12-07T03:47:02;30.60;;;17.53;;
23046;SDS011;11691;51.462;6.902;2022-12-07T03:55:08;32.63;;;18.40;;
23046;SDS011;11691;51.462;6.902;2022-12-07T03:57:45;36.53;;;17.83;;
23046;SDS011;11691;51.462;6.902;2022-12-07T04:00:13;32.10;;;17.93;;
23046;SDS011;11691;51.462;6.902;2022-12-07T04:02:39;37.43;;;18.70;;
23046;SDS011;11691;51.462;6.902;2022-12-07T04:05:06;35.60;;;17.93;;
23046;SDS011;11691;51.462;6.902;2022-12-07T04:07:32;32.93;;;17.87;;
23046;SDS011;11691;51.462;6.902;2022-12-07T04:09:58;27.13;;;16.37;;
23046;SDS011;11691;51.462;6.902;2022-12-07T04:12:25;28.40;;;16.17;;
23046;SDS011;11691;51.462;6.902;2022-12-07T04:14:51;30.17;;;16.50;;
23046;SDS011;11691;51.462;6.902;2022-12-07T04:17:17;27.37;;;17.13;;
23046;SDS011;11691;51.462;6.902;2022-12-07T04:19:43;26.80;;;17.03;;
23046;SDS011;11691;51.462;6.902;2022-12-07T04:22:09;30.00;;;16.57;;
23046;SDS011;11691;51.462;6.902;2022-12-07T04:24:35;31.17;;;16.90;;
23046;SDS011;11691;51.462;6.902;2022-12-07T04:27:00;27.03;;;15.87;;
23046;SDS011;11691;51.462;6.902;2022-12-07T04:29:27;28.60;;;14.87;;
23046;SDS011;11691;51.462;6.902;2022-12-07T04:31:53;27.90;;;15.83;;
23046;SDS011;11691;51.462;6.902;2022-12-07T04:34:19;28.03;;;16.30;;
23046;SDS011;11691;51.462;6.902;2022-12-07T04:36:46;25.97;;;15.53;;
23046;SDS011;11691;51.462;6.902;2022-12-07T04:41:44;22.57;;;15.47;;
23046;SDS011;11691;51.462;6.902;2022-12-07T04:44:10;26.07;;;16.10;;
23046;SDS011;11691;51.462;6.902;2022-12-07T04:46:39;28.73;;;16.60;;
23046;SDS011;11691;51.462;6.902;2022-12-07T04:49:05;26.30;;;15.73;;
23046;SDS011;11691;51.462;6.902;2022-12-07T04:51:30;26.23;;;15.23;;
23046;SDS011;11691;51.462;6.902;2022-12-07T04:53:56;32.13;;;16.27;;
23046;SDS011;11691;51.462;6.902;2022-12-07T04:56:22;28.30;;;16.93;;
23046;SDS011;11691;51.462;6.902;2022-12-07T04:58:49;29.50;;;15.90;;
23046;SDS011;11691;51.462;6.902;2022-12-07T05:01:16;29.27;;;17.10;;
23046;SDS011;11691;51.462;6.902;2022-12-07T05:03:42;34.03;;;15.47;;
23046;SDS011;11691;51.462;6.902;2022-12-07T05:06:09;33.20;;;16.53;;
23046;SDS011;11691;51.462;6.902;2022-12-07T05:08:36;28.27;;;16.27;;
23046;SDS011;11691;51.462;6.902;2022-12-07T05:11:03;28.20;;;16.47;;
23046;SDS011;11691;51.462;6.902;2022-12-07T05:13:30;24.83;;;16.30;;
23046;SDS011;11691;51.462;6.902;2022-12-07T05:15:56;30.87;;;16.20;;
23046;SDS011;11691;51.462;6.902;2022-12-07T05:18:22;28.83;;;15.60;;
23046;SDS011;11691;51.462;6.902;2022-12-07T05:20:48;29.67;;;16.27;;
23046;SDS011;11691;51.462;6.902;2022-12-07T05:23:15;34.03;;;16.00;;
23046;SDS011;11691;51.462;6.902;2022-12-07T05:25:41;31.17;;;15.90;;
23046;SDS011;11691;51.462;6.902;2022-12-07T05:28:07;27.00;;;15.30;;
23046;SDS011;11691;51.462;6.902;2022-12-07T05:30:33;28.57;;;15.27;;
23046;SDS011;11691;51.462;6.902;2022-12-07T05:32:59;25.73;;;15.83;;
23046;SDS011;11691;51.462;6.902;2022-12-07T05:35:25;28.13;;;16.00;;
23046;SDS011;11691;51.462;6.902;2022-12-07T05:37:51;25.93;;;15.13;;
23046;SDS011;11691;51.462;6.902;2022-12-07T05:40:17;32.03;;;15.13;;
23046;SDS011;11691;51.462;6.902;2022-12-07T05:42:44;32.17;;;15.03;;
23046;SDS011;11691;51.462;6.902;2022-12-07T05:45:10;28.57;;;14.80;;
23046;SDS011;11691;51.462;6.902;2022-12-07T05:47:37;27.07;;;14.27;;
23046;SDS011;11691;51.462;6.902;2022-12-07T05:50:04;23.57;;;14.00;;
23046;SDS011;11691;51.462;6.902;2022-12-07T05:52:30;25.57;;;13.60;;
23046;SDS011;11691;51.462;6.902;2022-12-07T05:54:56;26.43;;;13.63;;
23046;SDS011;11691;51.462;6.902;2022-12-07T05:57:22;23.13;;;13.87;;
23046;SDS011;11691;51.462;6.902;2022-12-07T05:59:48;23.30;;;12.47;;
23046;SDS011;11691;51.462;6.902;2022-12-07T06:02:15;23.77;;;12.33;;
23046;SDS011;11691;51.462;6.902;2022-12-07T06:04:44;27.83;;;12.67;;
23046;SDS011;11691;51.462;6.902;2022-12-07T06:07:11;26.57;;;12.67;;
23046;SDS011;11691;51.462;6.902;2022-12-07T06:09:38;25.93;;;14.23;;
23046;SDS011;11691;51.462;6.902;2022-12-07T06:12:04;23.60;;;13.60;;
23046;SDS011;11691;51.462;6.902;2022-12-07T06:14:48;23.30;;;13.33;;
23046;SDS011;11691;51.462;6.902;2022-12-07T06:17:15;23.37;;;13.13;;
23046;SDS011;11691;51.462;6.902;2022-12-07T06:19:41;26.37;;;12.90;;
23046;SDS011;11691;51.462;6.902;2022-12-07T06:22:07;23.40;;;13.87;;
23046;SDS011;11691;51.462;6.902;2022-12-07T06:24:34;28.80;;;13.57;;
23046;SDS011;11691;51.462;6.902;2022-12-07T06:27:00;24.70;;;13.10;;
23046;SDS011;11691;51.462;6.902;2022-12-07T06:29:26;24.50;;;13.83;;
23046;SDS011;11691;51.462;6.902;2022-12-07T06:31:52;22.43;;;12.70;;
23046;SDS011;11691;51.462;6.902;2022-12-07T06:34:19;25.97;;;13.43;;
23046;SDS011;11691;51.462;6.902;2022-12-07T06:36:48;24.77;;;13.00;;
23046;SDS011;11691;51.462;6.902;2022-12-07T06:39:19;24.10;;;12.70;;
23046;SDS011;11691;51.462;6.902;2022-12-07T06:41:45;31.57;;;13.27;;
23046;SDS011;11691;51.462;6.902;2022-12-07T06:44:11;22.03;;;11.97;;
23046;SDS011;11691;51.462;6.902;2022-12-07T06:46:37;25.20;;;12.30;;
23046;SDS011;11691;51.462;6.902;2022-12-07T06:49:03;24.97;;;12.87;;
23046;SDS011;11691;51.462;6.902;2022-12-07T06:51:30;21.47;;;11.60;;
23046;SDS011;11691;51.462;6.902;2022-12-07T06:53:56;27.37;;;12.63;;
23046;SDS011;11691;51.462;6.902;2022-12-07T06:56:22;27.00;;;13.23;;
23046;SDS011;11691;51.462;6.902;2022-12-07T06:58:48;22.60;;;13.97;;
23046;SDS011;11691;51.462;6.902;2022-12-07T07:01:16;27.30;;;13.17;;
23046;SDS011;11691;51.462;6.902;2022-12-07T07:03:43;22.20;;;11.90;;
23046;SDS011;11691;51.462;6.902;2022-12-07T07:06:10;20.10;;;11.37;;
23046;SDS011;11691;51.462;6.902;2022-12-07T07:08:36;25.47;;;11.33;;
23046;SDS011;11691;51.462;6.902;2022-12-07T07:11:03;26.63;;;12.70;;
23046;SDS011;11691;51.462;6.902;2022-12-07T07:13:29;20.60;;;12.90;;
23046;SDS011;11691;51.462;6.902;2022-12-07T07:15:55;24.00;;;12.77;;
23046;SDS011;11691;51.462;6.902;2022-12-07T07:18:21;23.33;;;12.70;;
23046;SDS011;11691;51.462;6.902;2022-12-07T07:20:47;24.97;;;12.23;;
23046;SDS011;11691;51.462;6.902;2022-12-07T07:23:13;19.60;;;12.00;;
23046;SDS011;11691;51.462;6.902;2022-12-07T07:25:39;18.10;;;10.90;;
23046;SDS011;11691;51.462;6.902;2022-12-07T07:28:05;26.30;;;12.13;;
23046;SDS011;11691;51.462;6.902;2022-12-07T07:30:30;19.13;;;10.03;;
23046;SDS011;11691;51.462;6.902;2022-12-07T07:32:57;19.27;;;10.70;;
23046;SDS011;11691;51.462;6.902;2022-12-07T07:35:24;16.80;;;10.47;;
23046;SDS011;11691;51.462;6.902;2022-12-07T07:37:50;19.77;;;10.77;;
23046;SDS011;11691;51.462;6.902;2022-12-07T07:40:16;22.23;;;10.73;;
23046;SDS011;11691;51.462;6.902;2022-12-07T07:42:42;22.37;;;10.73;;
23046;SDS011;11691;51.462;6.902;2022-12-07T07:45:08;19.40;;;10.83;;
23046;SDS011;11691;51.462;6.902;2022-12-07T07:47:34;22.70;;;10.90;;
23046;SDS011;11691;51.462;6.902;2022-12-07T07:50:00;19.03;;;10.20;;
23046;SDS011;11691;51.462;6.902;2022-12-07T07:52:26;18.60;;;11.13;;
23046;SDS011;11691;51.462;6.902;2022-12-07T07:54:52;24.03;;;10.97;;
23046;SDS011;11691;51.462;6.902;2022-12-07T07:57:18;24.70;;;11.30;;
23046;SDS011;11691;51.462;6.902;2022-12-07T07:59:44;21.40;;;10.73;;
23046;SDS011;11691;51.462;6.902;2022-12-07T08:02:14;17.63;;;10.17;;
23046;SDS011;11691;51.462;6.902;2022-12-07T08:04:40;19.33;;;9.73;;
23046;SDS011;11691;51.462;6.902;2022-12-07T08:07:06;18.07;;;10.37;;
23046;SDS011;11691;51.462;6.902;2022-12-07T08:09:32;20.67;;;9.93;;
23046;SDS011;11691;51.462;6.902;2022-12-07T08:11:58;22.23;;;10.67;;
23046;SDS011;11691;51.462;6.902;2022-12-07T08:14:24;15.43;;;9.37;;
23046;SDS011;11691;51.462;6.902;2022-12-07T08:16:52;19.80;;;9.93;;
23046;SDS011;11691;51.462;6.902;2022-12-07T08:19:18;17.03;;;9.23;;
23046;SDS011;11691;51.462;6.902;2022-12-07T08:21:44;18.30;;;9.77;;
23046;SDS011;11691;51.462;6.902;2022-12-07T08:24:10;20.37;;;10.30;;
23046;SDS011;11691;51.462;6.902;2022-12-07T08:26:37;15.73;;;9.50;;
23046;SDS011;11691;51.462;6.902;2022-12-07T08:29:03;17.27;;;9.70;;
23046;SDS011;11691;51.462;6.902;2022-12-07T08:31:29;18.70;;;10.27;;
23046;SDS011;11691;51.462;6.902;2022-12-07T08:33:55;17.67;;;9.73;;
23046;SDS011;11691;51.462;6.902;2022-12-07T08:36:22;19.23;;;9.27;;
23046;SDS011;11691;51.462;6.902;2022-12-07T08:38:48;19.30;;;9.80;;
23046;SDS011;11691;51.462;6.902;2022-12-07T08:41:14;20.53;;;9.90;;
23046;SDS011;11691;51.462;6.902;2022-12-07T08:43:40;16.30;;;9.43;;
23046;SDS011;11691;51.462;6.902;2022-12-07T08:46:10;21.13;;;9.77;;
23046;SDS011;11691;51.462;6.902;2022-12-07T08:48:49;19.63;;;9.77;;
23046;SDS011;11691;51.462;6.902;2022-12-07T08:51:16;16.33;;;10.07;;
23046;SDS011;11691;51.462;6.902;2022-12-07T08:53:42;18.03;;;9.80;;
23046;SDS011;11691;51.462;6.902;2022-12-07T08:56:08;16.03;;;9.87;;
23046;SDS011;11691;51.462;6.902;2022-12-07T08:58:35;20.13;;;10.00;;
23046;SDS011;11691;51.462;6.902;2022-12-07T09:01:01;18.90;;;9.00;;
23046;SDS011;11691;51.462;6.902;2022-12-07T09:03:27;18.47;;;9.03;;
23046;SDS011;11691;51.462;6.902;2022-12-07T09:05:53;17.30;;;9.27;;
23046;SDS011;11691;51.462;6.902;2022-12-07T09:08:20;17.97;;;9.60;;
23046;SDS011;11691;51.462;6.902;2022-12-07T09:10:47;14.87;;;8.90;;
23046;SDS011;11691;51.462;6.902;2022-12-07T09:13:13;14.10;;;8.63;;
23046;SDS011;11691;51.462;6.902;2022-12-07T09:15:39;19.53;;;9.73;;
23046;SDS011;11691;51.462;6.902;2022-12-07T09:18:05;20.83;;;10.63;;
23046;SDS011;11691;51.462;6.902;2022-12-07T09:20:31;19.47;;;10.90;;
23046;SDS011;11691;51.462;6.902;2022-12-07T09:22:56;21.17;;;10.33;;
23046;SDS011;11691;51.462;6.902;2022-12-07T09:25:22;17.97;;;9.30;;
23046;SDS011;11691;51.462;6.902;2022-12-07T09:27:54;15.50;;;9.53;;
23046;SDS011;11691;51.462;6.902;2022-12-07T09:30:20;16.27;;;8.57;;
23046;SDS011;11691;51.462;6.902;2022-12-07T09:32:46;15.23;;;9.27;;
23046;SDS011;11691;51.462;6.902;2022-12-07T09:35:12;17.23;;;8.77;;
23046;SDS011;11691;51.462;6.902;2022-12-07T09:37:38;20.33;;;8.50;;
23046;SDS011;11691;51.462;6.902;2022-12-07T09:40:05;16.77;;;8.10;;
23046;SDS011;11691;51.462;6.902;2022-12-07T09:42:35;18.43;;;8.67;;
23046;SDS011;11691;51.462;6.902;2022-12-07T09:45:05;18.13;;;8.17;;
23046;SDS011;11691;51.462;6.902;2022-12-07T09:47:37;14.10;;;7.73;;
23046;SDS011;11691;51.462;6.902;2022-12-07T09:50:04;13.70;;;6.87;;
23046;SDS011;11691;51.462;6.902;2022-12-07T09:52:31;15.60;;;7.60;;
23046;SDS011;11691;51.462;6.902;2022-12-07T09:54:57;12.20;;;7.53;;
23046;SDS011;11691;51.462;6.902;2022-12-07T09:57:30;14.93;;;7.73;;
23046;SDS011;11691;51.462;6.902;2022-12-07T09:59:59;16.40;;;7.53;;
23046;SDS011;11691;51.462;6.902;2022-12-07T10:02:32;10.07;;;7.73;;
23046;SDS011;11691;51.462;6.902;2022-12-07T10:05:01;17.03;;;7.57;;
23046;SDS011;11691;51.462;6.902;2022-12-07T10:07:27;15.40;;;7.37;;
23046;SDS011;11691;51.462;6.902;2022-12-07T10:09:53;18.70;;;7.83;;
23046;SDS011;11691;51.462;6.902;2022-12-07T10:12:19;15.27;;;8.07;;
23046;SDS011;11691;51.462;6.902;2022-12-07T10:15:03;15.13;;;7.43;;
23046;SDS011;11691;51.462;6.902;2022-12-07T10:17:32;13.43;;;6.80;;
23046;SDS011;11691;51.462;6.902;2022-12-07T10:20:19;16.50;;;6.67;;
23046;SDS011;11691;51.462;6.902;2022-12-07T10:22:55;12.00;;;6.10;;
23046;SDS011;11691;51.462;6.902;2022-12-07T10:25:22;10.43;;;6.07;;
23046;SDS011;11691;51.462;6.902;2022-12-07T10:31:01;25.07;;;8.93;;
23046;SDS011;11691;51.462;6.902;2022-12-07T10:33:37;13.13;;;6.27;;
23046;SDS011;11691;51.462;6.902;2022-12-07T10:38:46;12.03;;;5.80;;
23046;SDS011;11691;51.462;6.902;2022-12-07T10:41:14;15.93;;;5.63;;
23046;SDS011;11691;51.462;6.902;2022-12-07T10:43:47;9.47;;;5.30;;
23046;SDS011;11691;51.462;6.902;2022-12-07T10:46:21;10.43;;;5.20;;
23046;SDS011;11691;51.462;6.902;2022-12-07T10:51:47;15.20;;;5.40;;
23046;SDS011;11691;51.462;6.902;2022-12-07T10:54:20;20.00;;;5.77;;
23046;SDS011;11691;51.462;6.902;2022-12-07T10:56:53;15.23;;;5.73;;
23046;SDS011;11691;51.462;6.902;2022-12-07T10:59:37;10.83;;;4.37;;
23046;SDS011;11691;51.462;6.902;2022-12-07T11:07:27;12.67;;;4.63;;
23046;SDS011;11691;51.462;6.902;2022-12-07T11:26:23;12.40;;;5.03;;
23046;SDS011;11691;51.462;6.902;2022-12-07T11:36:47;10.20;;;5.40;;
23046;SDS011;11691;51.462;6.902;2022-12-07T11:39:20;11.03;;;4.83;;
23046;SDS011;11691;51.462;6.902;2022-12-07T11:42:00;13.43;;;4.53;;
23046;SDS011;11691;51.462;6.902;2022-12-07T11:47:08;9.20;;;3.83;;
23046;SDS011;11691;51.462;6.902;2022-12-07T11:49:40;9.93;;;4.07;;
23046;SDS011;11691;51.462;6.902;2022-12-07T11:52:30;11.83;;;4.47;;
23046;SDS011;11691;51.462;6.902;2022-12-07T11:54:58;13.73;;;4.43;;
23046;SDS011;11691;51.462;6.902;2022-12-07T11:57:37;10.93;;;4.80;;
23046;SDS011;11691;51.462;6.902;2022-12-07T12:00:05;9.70;;;4.40;;
23046;SDS011;11691;51.462;6.902;2022-12-07T12:02:41;9.17;;;4.40;;
23046;SDS011;11691;51.462;6.902;2022-12-07T12:05:17;10.77;;;4.80;;
23046;SDS011;11691;51.462;6.902;2022-12-07T12:07:44;14.67;;;5.00;;
23046;SDS011;11691;51.462;6.902;2022-12-07T12:10:17;9.47;;;4.57;;
23046;SDS011;11691;51.462;6.902;2022-12-07T12:15:31;11.37;;;3.90;;
23046;SDS011;11691;51.462;6.902;2022-12-07T12:20:49;10.93;;;3.80;;
23046;SDS011;11691;51.462;6.902;2022-12-07T12:25:49;10.40;;;3.53;;
23046;SDS011;11691;51.462;6.902;2022-12-07T12:31:10;9.93;;;4.60;;
23046;SDS011;11691;51.462;6.902;2022-12-07T12:33:37;11.47;;;3.60;;
23046;SDS011;11691;51.462;6.902;2022-12-07T12:38:49;8.87;;;4.40;;
23046;SDS011;11691;51.462;6.902;2022-12-07T12:44:00;9.27;;;4.20;;
23046;SDS011;11691;51.462;6.902;2022-12-07T12:48:54;13.33;;;5.73;;
23046;SDS011;11691;51.462;6.902;2022-12-07T12:51:37;14.63;;;5.33;;
23046;SDS011;11691;51.462;6.902;2022-12-07T12:54:05;15.30;;;5.40;;
23046;SDS011;11691;51.462;6.902;2022-12-07T12:56:40;12.90;;;4.30;;
23046;SDS011;11691;51.462;6.902;2022-12-07T13:29:04;14.07;;;3.07;;
23046;SDS011;11691;51.462;6.902;2022-12-07T13:34:05;7.80;;;3.10;;
23046;SDS011;11691;51.462;6.902;2022-12-07T13:36:50;5.43;;;3.33;;
23046;SDS011;11691;51.462;6.902;2022-12-07T13:39:20;8.30;;;3.77;;
23046;SDS011;11691;51.462;6.902;2022-12-07T13:41:51;10.00;;;3.40;;
23046;SDS011;11691;51.462;6.902;2022-12-07T13:44:20;6.93;;;3.77;;
23046;SDS011;11691;51.462;6.902;2022-12-07T13:49:19;7.80;;;3.47;;
23046;SDS011;11691;51.462;6.902;2022-12-07T13:51:46;7.73;;;3.53;;
23046;SDS011;11691;51.462;6.902;2022-12-07T13:54:12;6.50;;;3.43;;
23046;SDS011;11691;51.462;6.902;2022-12-07T13:56:39;12.63;;;4.50;;
23046;SDS011;11691;51.462;6.902;2022-12-07T13:59:10;8.27;;;3.80;;
23046;SDS011;11691;51.462;6.902;2022-12-07T14:01:39;8.37;;;4.13;;
23046;SDS011;11691;51.462;6.902;2022-12-07T14:06:55;8.10;;;3.33;;
23046;SDS011;11691;51.462;6.902;2022-12-07T14:09:25;10.13;;;3.40;;
23046;SDS011;11691;51.462;6.902;2022-12-07T14:11:53;5.13;;;3.17;;
23046;SDS011;11691;51.462;6.902;2022-12-07T14:14:21;6.43;;;3.17;;
23046;SDS011;11691;51.462;6.902;2022-12-07T14:16:56;6.63;;;3.20;;
23046;SDS011;11691;51.462;6.902;2022-12-07T14:19:40;10.23;;;3.30;;
23046;SDS011;11691;51.462;6.902;2022-12-07T14:22:07;9.83;;;3.87;;
23046;SDS011;11691;51.462;6.902;2022-12-07T14:24:41;7.50;;;3.90;;
23046;SDS011;11691;51.462;6.902;2022-12-07T14:27:16;10.03;;;4.03;;
23046;SDS011;11691;51.462;6.902;2022-12-07T14:29:46;12.10;;;3.80;;
23046;SDS011;11691;51.462;6.902;2022-12-07T14:34:58;6.27;;;3.17;;
23046;SDS011;11691;51.462;6.902;2022-12-07T14:37:25;8.77;;;3.90;;
23046;SDS011;11691;51.462;6.902;2022-12-07T14:39:51;6.43;;;3.40;;
23046;SDS011;11691;51.462;6.902;2022-12-07T14:42:17;9.97;;;3.70;;
23046;SDS011;11691;51.462;6.902;2022-12-07T14:44:43;10.10;;;3.60;;
23046;SDS011;11691;51.462;6.902;2022-12-07T14:47:10;12.87;;;3.80;;
23046;SDS011;11691;51.462;6.902;2022-12-07T14:49:36;7.50;;;3.60;;
23046;SDS011;11691;51.462;6.902;2022-12-07T14:52:02;17.50;;;3.90;;
23046;SDS011;11691;51.462;6.902;2022-12-07T14:54:29;10.40;;;3.77;;
23046;SDS011;11691;51.462;6.902;2022-12-07T14:56:56;9.23;;;3.10;;
23046;SDS011;11691;51.462;6.902;2022-12-07T14:59:22;9.03;;;3.07;;
23046;SDS011;11691;51.462;6.902;2022-12-07T15:01:48;6.73;;;3.10;;
23046;SDS011;11691;51.462;6.902;2022-12-07T15:04:14;9.53;;;2.40;;
23046;SDS011;11691;51.462;6.902;2022-12-07T15:06:40;6.27;;;2.30;;
23046;SDS011;11691;51.462;6.902;2022-12-07T15:09:09;8.60;;;2.40;;
23046;SDS011;11691;51.462;6.902;2022-12-07T15:11:36;6.93;;;2.83;;
23046;SDS011;11691;51.462;6.902;2022-12-07T15:14:02;5.53;;;2.70;;
23046;SDS011;11691;51.462;6.902;2022-12-07T15:16:36;7.17;;;2.73;;
23046;SDS011;11691;51.462;6.902;2022-12-07T15:19:02;9.03;;;3.37;;
23046;SDS011;11691;51.462;6.902;2022-12-07T15:21:29;8.10;;;2.77;;
23046;SDS011;11691;51.462;6.902;2022-12-07T15:23:55;10.00;;;3.00;;
23046;SDS011;11691;51.462;6.902;2022-12-07T15:26:21;11.83;;;3.10;;
23046;SDS011;11691;51.462;6.902;2022-12-07T15:28:47;10.10;;;2.43;;
23046;SDS011;11691;51.462;6.902;2022-12-07T15:31:14;8.10;;;2.50;;
23046;SDS011;11691;51.462;6.902;2022-12-07T15:33:40;3.93;;;2.60;;
23046;SDS011;11691;51.462;6.902;2022-12-07T15:36:06;8.10;;;2.80;;
23046;SDS011;11691;51.462;6.902;2022-12-07T15:38:33;7.90;;;2.83;;
23046;SDS011;11691;51.462;6.902;2022-12-07T15:40:58;6.50;;;3.03;;
23046;SDS011;11691;51.462;6.902;2022-12-07T15:43:24;5.60;;;2.77;;
23046;SDS011;11691;51.462;6.902;2022-12-07T15:46:09;9.03;;;2.63;;
23046;SDS011;11691;51.462;6.902;2022-12-07T15:48:35;5.67;;;2.80;;
23046;SDS011;11691;51.462;6.902;2022-12-07T15:51:04;9.90;;;3.37;;
23046;SDS011;11691;51.462;6.902;2022-12-07T15:53:31;7.23;;;3.10;;
23046;SDS011;11691;51.462;6.902;2022-12-07T15:55:57;11.97;;;3.20;;
23046;SDS011;11691;51.462;6.902;2022-12-07T15:58:23;4.70;;;2.93;;
23046;SDS011;11691;51.462;6.902;2022-12-07T16:00:49;7.93;;;3.43;;
23046;SDS011;11691;51.462;6.902;2022-12-07T16:03:14;9.60;;;3.57;;
23046;SDS011;11691;51.462;6.902;2022-12-07T16:05:40;8.70;;;3.10;;
23046;SDS011;11691;51.462;6.902;2022-12-07T16:08:06;6.70;;;3.17;;
23046;SDS011;11691;51.462;6.902;2022-12-07T16:10:32;9.97;;;3.40;;
23046;SDS011;11691;51.462;6.902;2022-12-07T16:12:58;11.23;;;3.60;;
23046;SDS011;11691;51.462;6.902;2022-12-07T16:15:24;7.90;;;3.67;;
23046;SDS011;11691;51.462;6.902;2022-12-07T16:17:51;11.97;;;3.50;;
23046;SDS011;11691;51.462;6.902;2022-12-07T16:20:18;10.00;;;3.27;;
23046;SDS011;11691;51.462;6.902;2022-12-07T16:22:44;9.80;;;3.63;;
23046;SDS011;11691;51.462;6.902;2022-12-07T16:25:10;12.57;;;4.17;;
23046;SDS011;11691;51.462;6.902;2022-12-07T16:27:36;13.90;;;4.20;;
23046;SDS011;11691;51.462;6.902;2022-12-07T16:30:02;11.90;;;4.07;;
23046;SDS011;11691;51.462;6.902;2022-12-07T16:32:29;10.20;;;3.30;;
23046;SDS011;11691;51.462;6.902;2022-12-07T16:34:55;10.20;;;3.90;;
23046;SDS011;11691;51.462;6.902;2022-12-07T16:37:20;7.90;;;3.90;;
23046;SDS011;11691;51.462;6.902;2022-12-07T16:39:46;10.07;;;3.40;;
23046;SDS011;11691;51.462;6.902;2022-12-07T16:42:12;11.37;;;3.37;;
23046;SDS011;11691;51.462;6.902;2022-12-07T16:44:38;9.73;;;3.87;;
23046;SDS011;11691;51.462;6.902;2022-12-07T16:47:05;8.30;;;3.30;;
23046;SDS011;11691;51.462;6.902;2022-12-07T16:49:31;8.17;;;3.33;;
23046;SDS011;11691;51.462;6.902;2022-12-07T16:51:57;8.90;;;3.67;;
23046;SDS011;11691;51.462;6.902;2022-12-07T16:54:23;9.07;;;3.70;;
23046;SDS011;11691;51.462;6.902;2022-12-07T16:56:49;12.83;;;3.27;;